Time;durP1;ratioP1;P1;durP2;ratioP2;P2;SDS_P1;SDS_P2;PMS_P1;PMS_P2;Temp;Humidity;BMP_temperature;BMP_pressure;BME280_temperature;BME280_humidity;BME280_pressure;Samples;Min_cycle;Max_cycle;Signal;HPM_P1;HPM_P2
2021/12/05 10:16:22;;;;;;;;;;;;;;;3.52;83.13;95801.53;4196308;28;5782;-69
2021/12/05 10:35:59;;;;;;;;;;;;;;;3.32;81.53;95803.78;4194498;28;5696;-69
2021/12/05 10:38:01;;;;;;;;;;;;;;;3.17;81.43;95795.00;4195162;28;5753;-69
2021/12/05 10:40:08;;;;;;;;;;;;;;;3.25;82.09;95794.97;4199691;28;5933;-68
2021/12/05 10:42:45;;;;;;;;;;;;;;;3.32;82.51;95795.94;4194638;28;5881;-68
2021/12/05 10:44:46;;;;;;;;;;;;;;;3.50;81.97;95795.63;4197191;28;5757;-67
2021/12/05 10:46:49;;;;;;;;;;;;;;;3.55;81.76;95792.53;4195067;28;5823;-70
2021/12/05 10:48:53;;;;;;;;;;;;;;;3.56;81.20;95791.53;4189905;28;5924;-72
2021/12/05 10:51:17;;;;;;;;;;;;;;;3.48;80.32;95795.00;4198710;28;5961;-73
2021/12/05 10:53:43;;;;;;;;;;;;;;;3.45;80.38;95795.34;4198920;28;5791;-71
2021/12/05 10:55:45;;;;;;;;;;;;;;;3.50;80.54;95793.84;4188906;28;5911;-71
2021/12/05 10:57:51;;;;;;;;;;;;;;;3.59;81.18;95793.78;4199395;28;5791;-71
2021/12/05 10:59:53;;;;;;;;;;;;;;;3.73;81.14;95785.19;4198718;28;5826;-71
2021/12/05 11:01:59;;;;;;;;;;;;;;;3.60;81.06;95782.34;4196718;28;6042;-71
2021/12/05 11:04:03;;;;;;;;;;;;;;;3.65;81.79;95774.81;4204951;28;5751;-72
2021/12/05 11:06:29;;;;;;;;;;;;;;;3.84;82.82;95779.53;4213350;28;5780;-70
2021/12/05 11:08:34;;;;;;;;;;;;;;;3.99;81.90;95775.19;4197326;28;6601;-72
2021/12/05 11:10:43;;;;;;;;;;;;;;;4.04;81.00;95772.84;4194674;28;5839;-72
2021/12/05 11:12:45;;;;;;;;;;;;;;;4.06;80.41;95770.84;4195223;28;5638;-72
2021/12/05 11:14:52;;;;;;;;;;;;;;;4.13;79.15;95772.78;4192414;28;5745;-70
2021/12/05 11:16:59;;;;;;;;;;;;;;;4.01;78.80;95760.13;4190159;28;5814;-70
2021/12/05 11:19:08;;;;;;;;;;;;;;;4.05;78.92;95758.78;4175714;28;6582;-70
2021/12/05 11:21:34;;;;;;;;;;;;;;;4.08;78.72;95750.59;4189310;28;5075;-70
2021/12/05 11:23:35;;;;;;;;;;;;;;;3.98;79.21;95752.66;4195285;28;5842;-70
2021/12/05 11:25:42;;;;;;;;;;;;;;;4.01;78.21;95748.84;4195818;28;5759;-71
2021/12/05 11:27:50;;;;;;;;;;;;;;;4.13;78.48;95757.06;4190130;28;5850;-70
2021/12/05 11:30:00;;;;;;;;;;;;;;;3.88;79.52;95749.47;4193676;28;5819;-70
2021/12/05 11:32:08;;;;;;;;;;;;;;;3.98;79.00;95759.69;4195972;28;5851;-70
2021/12/05 11:34:10;;;;;;;;;;;;;;;4.03;78.96;95752.91;4199279;28;5807;-71
2021/12/05 11:36:12;;;;;;;;;;;;;;;3.86;79.39;95751.44;4197028;28;5973;-73
2021/12/05 11:38:24;;;;;;;;;;;;;;;3.96;79.14;95757.22;4176458;28;5765;-73
2021/12/05 11:40:50;;;;;;;;;;;;;;;3.93;78.84;95757.56;4198138;28;5772;-73
2021/12/05 11:42:53;;;;;;;;;;;;;;;3.99;78.63;95763.91;4178321;28;5761;-72
2021/12/05 11:45:05;;;;;;;;;;;;;;;3.79;77.32;95776.66;4197539;28;5878;-72
2021/12/05 11:47:16;;;;;;;;;;;;;;;3.77;78.63;95768.19;4199246;28;5791;-72
2021/12/05 11:49:21;;;;;;;;;;;;;;;3.82;79.04;95770.25;4182254;28;5763;-73
2021/12/05 11:51:28;;;;;;;;;;;;;;;3.69;78.57;95765.63;4179610;28;5642;-71
2021/12/05 11:53:45;;;;;;;;;;;;;;;3.69;79.87;95768.25;4198402;28;5786;-72
2021/12/05 11:55:47;;;;;;;;;;;;;;;3.72;79.64;95773.91;4197040;28;5819;-74
2021/12/05 11:57:50;;;;;;;;;;;;;;;3.67;81.02;95765.00;4180759;28;6460;-73
2021/12/05 11:59:57;;;;;;;;;;;;;;;3.54;79.99;95762.16;4179921;28;5771;-73
2021/12/05 12:02:16;;;;;;;;;;;;;;;3.64;78.73;95765.34;4196314;28;5957;-72
2021/12/05 12:04:21;;;;;;;;;;;;;;;3.69;78.80;95765.63;4197400;28;5787;-72
2021/12/05 12:06:24;;;;;;;;;;;;;;;3.78;78.58;95764.56;4199352;28;5798;-73
2021/12/05 12:08:26;;;;;;;;;;;;;;;3.78;80.05;95769.81;4197378;28;5749;-73
2021/12/05 12:10:28;;;;;;;;;;;;;;;3.81;81.92;95759.00;4197886;28;5733;-74
2021/12/05 12:12:31;;;;;;;;;;;;;;;3.77;82.43;95765.56;4198404;28;5773;-69
2021/12/05 12:14:32;;;;;;;;;;;;;;;3.61;84.21;95776.13;4197403;28;5775;-71
2021/12/05 12:16:34;;;;;;;;;;;;;;;3.53;85.78;95770.97;4213682;28;5726;-71
2021/12/05 12:18:39;;;;;;;;;;;;;;;3.39;85.32;95780.34;4193775;28;5800;-72
2021/12/05 12:20:45;;;;;;;;;;;;;;;3.41;84.56;95784.44;4195812;28;6169;-72
2021/12/05 12:22:48;;;;;;;;;;;;;;;3.10;85.74;95786.25;4198312;28;6219;-74
2021/12/05 12:25:00;;;;;;;;;;;;;;;2.95;86.68;95778.34;4198502;28;5919;-72
2021/12/05 12:27:03;;;;;;;;;;;;;;;2.78;87.16;95777.59;4196177;28;5756;-71
2021/12/05 12:29:05;;;;;;;;;;;;;;;3.02;85.93;95765.41;4197249;28;5674;-71
2021/12/05 12:31:17;;;;;;;;;;;;;;;3.05;85.66;95765.06;4197599;28;5942;-72
2021/12/05 12:33:43;;;;;;;;;;;;;;;3.17;85.00;95771.50;4197122;28;5740;-71
2021/12/05 12:35:45;;;;;;;;;;;;;;;3.35;83.98;95768.63;4194719;28;5816;-72
2021/12/05 12:38:08;;;;;;;;;;;;;;;3.27;84.17;95769.50;4197247;28;5761;-73
2021/12/05 12:40:10;;;;;;;;;;;;;;;3.05;84.75;95768.47;4197940;28;5873;-72
2021/12/05 12:42:23;;;;;;;;;;;;;;;3.27;84.37;95766.06;4195816;28;5895;-72
2021/12/05 12:44:26;;;;;;;;;;;;;;;3.42;83.47;95765.16;4163990;28;5778;-74
2021/12/05 12:46:32;;;;;;;;;;;;;;;3.39;83.51;95764.69;4190754;28;5918;-73
2021/12/05 12:48:34;;;;;;;;;;;;;;;3.41;82.83;95762.75;4178293;28;5736;-72
2021/12/05 12:50:51;;;;;;;;;;;;;;;3.61;82.56;95768.28;4190748;28;5914;-71
2021/12/05 12:53:37;;;;;;;;;;;;;;;3.69;82.53;95760.41;4193341;28;5783;-71
2021/12/05 12:56:01;;;;;;;;;;;;;;;3.91;81.85;95759.56;4177295;28;5754;-70
2021/12/05 12:58:07;;;;;;;;;;;;;;;4.07;81.50;95771.66;4195902;28;5761;-70
2021/12/05 13:00:16;;;;;;;;;;;;;;;4.14;80.82;95764.75;4201467;28;5723;-71
2021/12/05 13:05:01;;;;;;;;;;;;;;;4.14;80.53;95764.75;4195680;28;5904;-71
2021/12/05 13:11:59;;;;;;;;;;;;;;;4.09;81.09;95761.88;4185710;28;5712;-73
2021/12/05 13:14:04;;;;;;;;;;;;;;;4.09;79.57;95767.09;4192140;28;5784;-72
2021/12/05 13:16:17;;;;;;;;;;;;;;;4.03;79.19;95763.38;4192871;28;5642;-72
2021/12/05 13:18:25;;;;;;;;;;;;;;;3.81;80.24;95764.22;4193333;28;5886;-72
2021/12/05 13:20:52;;;;;;;;;;;;;;;3.77;79.62;95770.78;4200759;28;5709;-71
2021/12/05 13:22:59;;;;;;;;;;;;;;;3.92;80.83;95766.41;4201939;28;5728;-71
2021/12/05 13:25:06;;;;;;;;;;;;;;;4.04;80.59;95754.53;4198905;28;5704;-71
2021/12/05 13:27:23;;;;;;;;;;;;;;;4.11;80.41;95759.06;4202260;28;5715;-72
2021/12/05 13:29:27;;;;;;;;;;;;;;;4.12;81.17;95763.31;4193130;28;5830;-72
2021/12/05 13:31:29;;;;;;;;;;;;;;;4.12;80.69;95758.06;4201600;28;5883;-72
2021/12/05 13:33:31;;;;;;;;;;;;;;;4.18;79.91;95754.72;4200999;28;5692;-72
2021/12/05 13:35:36;;;;;;;;;;;;;;;3.94;80.30;95763.63;4198884;28;5653;-72
2021/12/05 13:37:48;;;;;;;;;;;;;;;4.09;80.05;95767.91;4215261;28;5124;-72
2021/12/05 13:40:11;;;;;;;;;;;;;;;4.07;78.64;95761.19;4201719;28;7714;-72
2021/12/05 13:42:16;;;;;;;;;;;;;;;4.14;79.33;95763.94;4200042;28;5095;-72
2021/12/05 13:44:18;;;;;;;;;;;;;;;4.12;79.36;95760.69;4202307;28;7839;-71
2021/12/05 13:46:38;;;;;;;;;;;;;;;4.20;78.89;95756.19;4200527;28;5633;-72
2021/12/05 13:48:41;;;;;;;;;;;;;;;4.09;79.08;95757.44;4199841;28;5827;-72
2021/12/05 13:50:57;;;;;;;;;;;;;;;4.26;78.44;95754.66;4200884;28;6350;-72
2021/12/05 13:53:16;;;;;;;;;;;;;;;4.24;77.65;95749.59;4201644;28;5752;-72
2021/12/05 13:55:39;;;;;;;;;;;;;;;4.22;76.64;95750.78;4181880;28;5713;-71
2021/12/05 13:58:12;;;;;;;;;;;;;;;4.12;76.58;95760.69;4199907;28;5703;-73
2021/12/05 14:01:02;;;;;;;;;;;;;;;4.15;76.64;95758.53;4195099;28;5844;-72
2021/12/05 14:03:04;;;;;;;;;;;;;;;4.26;77.58;95755.47;4188017;28;5801;-72
2021/12/05 14:05:37;;;;;;;;;;;;;;;4.25;76.78;95753.03;4200551;28;5602;-73
2021/12/05 14:07:41;;;;;;;;;;;;;;;4.35;77.36;95756.19;4199774;28;5689;-74
2021/12/05 14:09:49;;;;;;;;;;;;;;;4.45;77.73;95751.53;4201885;28;5904;-72
2021/12/05 14:12:13;;;;;;;;;;;;;;;4.47;76.42;95748.72;4183342;28;5679;-70
2021/12/05 14:14:17;;;;;;;;;;;;;;;4.47;76.30;95749.53;4188136;28;6307;-74
2021/12/05 14:16:20;;;;;;;;;;;;;;;4.36;75.40;95750.78;4198076;28;5646;-74
2021/12/05 14:18:22;;;;;;;;;;;;;;;4.27;75.72;95753.66;4184231;28;5782;-74
2021/12/05 14:20:25;;;;;;;;;;;;;;;4.25;76.23;95750.41;4202161;28;5630;-74
2021/12/05 14:22:30;;;;;;;;;;;;;;;4.46;76.50;95745.28;4201793;28;5728;-70
2021/12/05 14:24:39;;;;;;;;;;;;;;;4.56;75.49;95748.44;4202623;28;5941;-71
2021/12/05 14:26:42;;;;;;;;;;;;;;;4.61;76.34;95750.50;4200038;28;5684;-72
2021/12/05 14:29:05;;;;;;;;;;;;;;;4.57;78.13;95757.91;4198317;28;5662;-71
2021/12/05 14:31:06;;;;;;;;;;;;;;;4.57;77.55;95755.31;4200003;28;5692;-71
2021/12/05 14:33:08;;;;;;;;;;;;;;;4.36;77.28;95757.81;4203279;28;5711;-71
2021/12/05 14:35:14;;;;;;;;;;;;;;;4.50;76.53;95759.63;4202724;28;5700;-70
2021/12/05 14:37:20;;;;;;;;;;;;;;;4.44;76.68;95762.16;4200800;28;5732;-71
2021/12/05 14:39:28;;;;;;;;;;;;;;;4.46;75.92;95761.00;4202395;28;5809;-71
2021/12/05 14:41:32;;;;;;;;;;;;;;;4.43;75.31;95757.94;4203313;28;5703;-72
2021/12/05 14:43:33;;;;;;;;;;;;;;;4.36;76.65;95763.06;4199614;28;5774;-70
2021/12/05 14:45:39;;;;;;;;;;;;;;;4.23;77.21;95762.88;4201721;28;5733;-70
2021/12/05 14:47:43;;;;;;;;;;;;;;;4.44;76.42;95768.22;4217340;28;5614;-70
2021/12/05 14:49:52;;;;;;;;;;;;;;;4.38;76.37;95763.69;4202875;28;5697;-71
2021/12/05 14:51:55;;;;;;;;;;;;;;;4.39;76.21;95767.91;4183726;28;5649;-71
2021/12/05 14:53:57;;;;;;;;;;;;;;;4.44;76.57;95768.22;4198167;28;5838;-68
2021/12/05 14:55:58;;;;;;;;;;;;;;;4.34;76.13;95765.03;4201902;28;5752;-71
2021/12/05 14:58:07;;;;;;;;;;;;;;;4.35;76.00;95770.09;4201806;28;5843;-67
2021/12/05 15:00:10;;;;;;;;;;;;;;;4.39;75.84;95767.91;4201772;28;5931;-68
2021/12/05 15:02:13;;;;;;;;;;;;;;;4.32;76.06;95777.50;4200649;28;6832;-71
2021/12/05 15:04:21;;;;;;;;;;;;;;;4.37;77.47;95780.38;4198115;28;5830;-69
2021/12/05 15:06:34;;;;;;;;;;;;;;;4.33;78.01;95779.94;4198853;28;5693;-70
2021/12/05 15:08:36;;;;;;;;;;;;;;;4.37;79.10;95786.44;4202783;28;5680;-70
2021/12/05 15:10:41;;;;;;;;;;;;;;;4.35;79.69;95795.44;4201718;28;5870;-71
2021/12/05 15:12:43;;;;;;;;;;;;;;;4.14;79.96;95798.75;4200722;28;5688;-72
2021/12/05 15:14:48;;;;;;;;;;;;;;;4.02;77.76;95800.16;4201290;28;5688;-70
2021/12/05 15:16:56;;;;;;;;;;;;;;;4.14;76.81;95797.94;4202526;28;5790;-70
2021/12/05 15:18:59;;;;;;;;;;;;;;;4.09;76.11;95798.47;4198120;28;5763;-69
2021/12/05 15:21:02;;;;;;;;;;;;;;;4.15;77.23;95799.56;4204632;28;5719;-73
2021/12/05 15:23:08;;;;;;;;;;;;;;;4.16;77.50;95801.19;4200284;28;6329;-72
2021/12/05 15:25:17;;;;;;;;;;;;;;;3.90;77.27;95805.00;4201002;28;5551;-72
2021/12/05 15:27:21;;;;;;;;;;;;;;;3.96;77.40;95803.47;4204200;28;5869;-70
2021/12/05 15:29:23;;;;;;;;;;;;;;;3.88;79.26;95809.59;4204191;28;5944;-70
2021/12/05 15:31:45;;;;;;;;;;;;;;;3.96;80.34;95819.97;4201348;28;6353;-71
2021/12/05 15:33:46;;;;;;;;;;;;;;;4.03;80.55;95828.75;4201387;28;5719;-71
2021/12/05 15:35:50;;;;;;;;;;;;;;;3.77;78.35;95828.31;4198575;28;5736;-70
2021/12/05 15:37:56;;;;;;;;;;;;;;;3.88;78.37;95820.06;4197792;28;5646;-70
2021/12/05 15:39:59;;;;;;;;;;;;;;;3.93;77.90;95815.09;4198563;28;5651;-69
2021/12/05 15:42:01;;;;;;;;;;;;;;;3.92;78.73;95817.91;4197965;28;5699;-75
2021/12/05 15:44:03;;;;;;;;;;;;;;;3.96;78.92;95825.19;4199507;28;5688;-73
2021/12/05 15:46:08;;;;;;;;;;;;;;;3.94;79.33;95824.56;4197760;28;5650;-74
2021/12/05 15:48:10;;;;;;;;;;;;;;;3.93;80.92;95819.53;4190225;28;5915;-75
2021/12/05 15:50:21;;;;;;;;;;;;;;;3.89;81.41;95819.06;4196802;28;5757;-73
2021/12/05 15:52:28;;;;;;;;;;;;;;;3.85;81.74;95823.03;4200168;28;5627;-72
2021/12/05 15:54:29;;;;;;;;;;;;;;;3.87;82.24;95821.03;4199282;28;5831;-72
2021/12/05 15:56:31;;;;;;;;;;;;;;;3.84;82.56;95831.84;4196206;28;6495;-72
2021/12/05 15:58:44;;;;;;;;;;;;;;;3.91;83.24;95837.19;4199363;28;5619;-72
2021/12/05 16:00:58;;;;;;;;;;;;;;;3.95;82.74;95828.81;4181388;28;5661;-73
2021/12/05 16:03:07;;;;;;;;;;;;;;;3.83;83.72;95827.59;4196797;28;5773;-73
2021/12/05 16:05:19;;;;;;;;;;;;;;;3.88;81.44;95827.91;4197885;28;5097;-71
2021/12/05 16:07:25;;;;;;;;;;;;;;;3.93;79.90;95829.97;4198135;28;7864;-74
2021/12/05 16:09:30;;;;;;;;;;;;;;;3.82;78.65;95831.19;4199365;28;5688;-73
2021/12/05 16:11:31;;;;;;;;;;;;;;;3.69;77.95;95830.97;4198046;28;5684;-74
2021/12/05 16:13:41;;;;;;;;;;;;;;;3.74;77.88;95836.50;4199612;28;5813;-73
2021/12/05 16:15:46;;;;;;;;;;;;;;;3.77;76.93;95842.19;4171305;28;5669;-72
2021/12/05 16:18:00;;;;;;;;;;;;;;;3.73;76.66;95835.66;4192617;28;5650;-70
2021/12/05 16:20:08;;;;;;;;;;;;;;;3.82;76.96;95843.47;4198414;28;5673;-73
2021/12/05 16:22:10;;;;;;;;;;;;;;;3.86;75.89;95842.97;4200587;28;5857;-72
2021/12/05 16:24:19;;;;;;;;;;;;;;;3.71;76.98;95844.69;4195932;28;5858;-74
2021/12/05 16:26:26;;;;;;;;;;;;;;;3.85;76.64;95843.94;4198569;28;5947;-76
2021/12/05 16:28:36;;;;;;;;;;;;;;;3.83;77.42;95840.66;4198300;28;5689;-73
2021/12/05 16:30:46;;;;;;;;;;;;;;;3.92;76.71;95837.00;4198133;28;5707;-73
2021/12/05 16:32:47;;;;;;;;;;;;;;;3.93;76.90;95833.41;4195043;28;5543;-72
2021/12/05 16:34:51;;;;;;;;;;;;;;;3.95;76.78;95841.88;4200448;28;5838;-72
2021/12/05 16:36:57;;;;;;;;;;;;;;;3.71;75.59;95839.44;4194885;28;5797;-72
2021/12/05 16:39:15;;;;;;;;;;;;;;;3.83;76.37;95839.84;4181884;28;5669;-74
2021/12/05 16:41:29;;;;;;;;;;;;;;;3.87;76.76;95836.72;4193584;28;5700;-70
2021/12/05 16:43:34;;;;;;;;;;;;;;;3.85;76.74;95833.50;4193507;28;5780;-75
2021/12/05 16:45:37;;;;;;;;;;;;;;;3.90;76.73;95836.38;4193096;28;5844;-76
2021/12/05 16:47:39;;;;;;;;;;;;;;;3.85;75.38;95843.94;4179095;28;5760;-75
2021/12/05 16:49:44;;;;;;;;;;;;;;;3.73;74.95;95843.50;4191032;28;5856;-74
2021/12/05 16:51:46;;;;;;;;;;;;;;;3.69;74.78;95833.59;4194742;28;5707;-74
2021/12/05 16:53:51;;;;;;;;;;;;;;;3.82;75.38;95838.22;4196521;28;5699;-75
2021/12/05 16:55:59;;;;;;;;;;;;;;;3.81;74.16;95840.03;4200783;28;5689;-74
2021/12/05 16:58:16;;;;;;;;;;;;;;;3.80;73.44;95827.94;4200119;28;5635;-73
2021/12/05 17:00:23;;;;;;;;;;;;;;;3.84;73.72;95838.88;4192797;28;5700;-70
2021/12/05 17:02:33;;;;;;;;;;;;;;;3.92;73.85;95834.41;4202017;28;6344;-72
2021/12/05 17:04:48;;;;;;;;;;;;;;;3.84;74.54;95831.84;4200508;28;5626;-76
2021/12/05 17:06:54;;;;;;;;;;;;;;;3.71;74.42;95839.44;4200251;28;5786;-77
2021/12/05 17:08:58;;;;;;;;;;;;;;;3.73;72.90;95842.69;4204216;28;5703;-78
2021/12/05 17:11:01;;;;;;;;;;;;;;;3.76;74.22;95850.22;4202036;28;5696;-77
2021/12/05 17:13:16;;;;;;;;;;;;;;;3.64;75.43;95849.00;4202115;28;5639;-77
2021/12/05 17:15:22;;;;;;;;;;;;;;;3.41;77.80;95852.38;4193710;28;5791;-77
2021/12/05 17:17:32;;;;;;;;;;;;;;;3.39;77.46;95849.09;4197408;28;5643;-77
2021/12/05 17:19:34;;;;;;;;;;;;;;;3.56;76.49;95854.25;4199461;28;5654;-77
2021/12/05 17:21:47;;;;;;;;;;;;;;;3.58;76.44;95863.53;4203297;28;5642;-77
2021/12/05 17:24:09;;;;;;;;;;;;;;;3.58;76.92;95868.78;4198128;28;5746;-76
2021/12/05 17:26:31;;;;;;;;;;;;;;;3.44;77.96;95856.44;4196925;28;5677;-77
2021/12/05 17:28:42;;;;;;;;;;;;;;;3.35;77.61;95863.50;4202905;28;5691;-77
2021/12/05 17:30:55;;;;;;;;;;;;;;;3.11;78.68;95863.63;4198407;28;5795;-77
2021/12/05 17:32:58;;;;;;;;;;;;;;;3.35;78.46;95857.47;4202245;28;5696;-77
2021/12/05 17:34:59;;;;;;;;;;;;;;;3.43;78.09;95857.44;4203066;28;5625;-77
2021/12/05 17:37:03;;;;;;;;;;;;;;;3.44;78.13;95857.25;4202655;28;5637;-76
2021/12/05 17:39:21;;;;;;;;;;;;;;;3.49;78.07;95852.31;4202519;28;5101;-77
2021/12/05 17:41:26;;;;;;;;;;;;;;;3.60;78.05;95860.75;4199962;28;5910;-76
2021/12/05 17:43:28;;;;;;;;;;;;;;;3.61;78.09;95857.16;4197714;28;5817;-77
2021/12/05 17:45:37;;;;;;;;;;;;;;;3.69;77.17;95864.94;4201660;28;5947;-74
2021/12/05 17:47:40;;;;;;;;;;;;;;;3.68;77.99;95866.75;4193423;28;5626;-76
2021/12/05 17:49:48;;;;;;;;;;;;;;;3.59;78.20;95857.31;4199394;28;5700;-76
2021/12/05 17:51:55;;;;;;;;;;;;;;;3.68;78.37;95869.38;4179402;28;5867;-77
2021/12/05 17:53:58;;;;;;;;;;;;;;;3.73;78.07;95866.22;4234225;22;5857;-76
2021/12/05 17:56:11;;;;;;;;;;;;;;;3.72;77.92;95861.97;4223831;28;5787;-80
2021/12/05 17:58:34;;;;;;;;;;;;;;;3.64;78.14;95865.47;4225005;28;5772;-80
2021/12/05 18:00:56;;;;;;;;;;;;;;;3.70;76.72;95866.56;4226622;28;5636;-80
2021/12/05 18:03:01;;;;;;;;;;;;;;;3.52;77.97;95868.66;4218169;28;5833;-79
2021/12/05 18:05:06;;;;;;;;;;;;;;;3.63;78.14;95868.28;4233648;28;5696;-80
2021/12/05 18:07:10;;;;;;;;;;;;;;;3.72;77.05;95864.59;4225085;28;5608;-79
2021/12/05 18:09:11;;;;;;;;;;;;;;;3.55;77.61;95868.31;4208416;28;5889;-80
2021/12/05 18:11:21;;;;;;;;;;;;;;;3.40;78.30;95855.97;4228638;28;5620;-81
2021/12/05 18:13:25;;;;;;;;;;;;;;;3.61;77.15;95859.75;4198370;28;6419;-81
2021/12/05 18:15:33;;;;;;;;;;;;;;;3.71;76.65;95862.97;4216387;28;5817;-81
2021/12/05 18:17:36;;;;;;;;;;;;;;;3.72;77.04;95851.53;4220383;28;5635;-80
2021/12/05 18:19:38;;;;;;;;;;;;;;;3.88;76.17;95859.28;4202024;28;5897;-80
2021/12/05 18:21:41;;;;;;;;;;;;;;;3.95;76.01;95854.97;4206493;28;5729;-80
2021/12/05 18:23:44;;;;;;;;;;;;;;;3.71;75.38;95847.28;4202190;28;5911;-80
2021/12/05 18:25:46;;;;;;;;;;;;;;;3.40;76.53;95845.53;4202695;28;5817;-80
2021/12/05 18:27:48;;;;;;;;;;;;;;;3.57;76.48;95848.03;4219721;28;5712;-80
2021/12/05 18:29:49;;;;;;;;;;;;;;;3.82;76.23;95848.69;4220641;28;5719;-81
2021/12/05 18:31:56;;;;;;;;;;;;;;;3.92;75.50;95850.09;4214428;28;5728;-80
2021/12/05 18:34:05;;;;;;;;;;;;;;;3.92;75.21;95844.84;4205500;28;5887;-81
2021/12/05 18:36:07;;;;;;;;;;;;;;;3.88;72.70;95853.25;4211060;28;5766;-81
2021/12/05 18:38:12;;;;;;;;;;;;;;;3.72;72.91;95843.69;4218601;28;5717;-80
2021/12/05 18:40:15;;;;;;;;;;;;;;;3.63;72.71;95847.38;4216202;28;5190;-80
2021/12/05 18:42:21;;;;;;;;;;;;;;;3.56;73.56;95857.69;4235406;28;5675;-80
2021/12/05 18:44:27;;;;;;;;;;;;;;;3.59;74.18;95846.06;4224777;28;5704;-80
2021/12/05 18:46:29;;;;;;;;;;;;;;;3.64;74.94;95854.22;4229805;28;5731;-80
2021/12/05 18:48:31;;;;;;;;;;;;;;;3.69;75.29;95863.16;4223545;28;5607;-80
2021/12/05 18:50:34;;;;;;;;;;;;;;;3.63;75.60;95868.28;4223738;28;5777;-80
2021/12/05 18:52:39;;;;;;;;;;;;;;;3.52;79.56;95864.25;4196644;28;6033;-79
2021/12/05 18:54:42;;;;;;;;;;;;;;;3.36;81.55;95870.34;4210338;28;5717;-80
2021/12/05 18:56:45;;;;;;;;;;;;;;;3.22;82.48;95873.69;4229851;28;5711;-80
2021/12/05 18:58:46;;;;;;;;;;;;;;;3.11;83.08;95874.88;4225618;28;5613;-80
2021/12/05 19:05:47;;;;;;;;;;;;;;;3.04;84.67;95891.38;4221088;28;5607;-80
2021/12/05 19:08:16;;;;;;;;;;;;;;;3.08;84.30;95901.34;4210768;28;5720;-80
2021/12/05 19:12:33;;;;;;;;;;;;;;;2.83;86.14;95900.59;4222507;28;5608;-80
2021/12/05 19:14:42;;;;;;;;;;;;;;;2.88;85.73;95907.91;4205063;28;6010;-80
2021/12/05 19:16:47;;;;;;;;;;;;;;;2.79;85.69;95907.09;4221763;28;5612;-80
2021/12/05 19:18:49;;;;;;;;;;;;;;;2.72;85.28;95902.72;4219133;28;5612;-80
2021/12/05 19:20:51;;;;;;;;;;;;;;;2.71;85.93;95912.34;4219456;28;5798;-80
2021/12/05 19:22:54;;;;;;;;;;;;;;;2.63;86.33;95920.19;4224649;28;5979;-80
2021/12/05 19:25:08;;;;;;;;;;;;;;;2.59;86.13;95908.44;4238829;28;5617;-79
2021/12/05 19:27:10;;;;;;;;;;;;;;;2.55;86.35;95907.97;4200798;28;5218;-80
2021/12/05 19:29:14;;;;;;;;;;;;;;;2.54;86.27;95916.78;4193778;28;5747;-80
2021/12/05 19:31:16;;;;;;;;;;;;;;;2.36;86.18;95918.72;4232197;28;5606;-80
2021/12/05 19:33:20;;;;;;;;;;;;;;;2.25;86.16;95919.88;4228604;28;5730;-81
2021/12/05 19:35:22;;;;;;;;;;;;;;;2.26;85.80;95924.09;4234220;28;5704;-80
2021/12/05 19:37:24;;;;;;;;;;;;;;;2.32;86.14;95928.69;4220866;28;5761;-81
2021/12/05 19:39:29;;;;;;;;;;;;;;;2.24;86.92;95930.47;4201305;28;5763;-80
2021/12/05 19:41:31;;;;;;;;;;;;;;;2.29;86.40;95938.63;4228570;28;5098;-81
2021/12/05 19:43:34;;;;;;;;;;;;;;;2.06;86.93;95929.81;4222513;28;5743;-69
2021/12/05 19:45:37;;;;;;;;;;;;;;;2.30;86.63;95937.66;4184869;28;5820;-78
2021/12/05 19:47:39;;;;;;;;;;;;;;;2.28;86.24;95937.81;4221012;28;5609;-76
2021/12/05 19:49:41;;;;;;;;;;;;;;;2.34;85.88;95942.38;4221713;28;5759;-77
2021/12/05 19:51:43;;;;;;;;;;;;;;;2.17;86.56;95939.94;4207212;28;5210;-77
2021/12/05 19:53:47;;;;;;;;;;;;;;;1.98;88.19;95935.84;4224952;28;5714;-76
2021/12/05 19:55:51;;;;;;;;;;;;;;;1.90;88.94;95933.19;4203406;28;5773;-73
2021/12/05 19:57:55;;;;;;;;;;;;;;;1.77;89.10;95932.84;4213646;28;5615;-73
2021/12/05 19:59:57;;;;;;;;;;;;;;;1.88;88.48;95924.72;4224398;28;5636;-75
2021/12/05 20:01:59;;;;;;;;;;;;;;;2.16;86.91;95928.69;4226803;28;5632;-77
2021/12/05 20:04:03;;;;;;;;;;;;;;;2.51;85.09;95937.16;4225205;28;5849;-77
2021/12/05 20:06:06;;;;;;;;;;;;;;;2.62;84.79;95931.63;4225591;28;5632;-74
2021/12/05 20:08:10;;;;;;;;;;;;;;;2.69;84.22;95929.97;4222141;28;5824;-75
2021/12/05 20:10:14;;;;;;;;;;;;;;;2.79;84.02;95930.59;4232055;28;6037;-71
2021/12/05 20:12:17;;;;;;;;;;;;;;;2.87;83.96;95932.38;4216800;28;5812;-72
2021/12/05 20:14:21;;;;;;;;;;;;;;;2.90;83.50;95930.25;4222316;28;5760;-73
2021/12/05 20:16:47;;;;;;;;;;;;;;;2.93;83.50;95931.72;4205395;22;5870;-72
2021/12/05 20:18:48;;;;;;;;;;;;;;;2.84;83.88;95938.75;4208859;28;5714;-72
2021/12/05 20:20:52;;;;;;;;;;;;;;;2.97;83.59;95932.22;4202221;28;5796;-71
2021/12/05 20:22:54;;;;;;;;;;;;;;;2.99;83.26;95938.06;4210611;28;5826;-70
2021/12/05 20:24:56;;;;;;;;;;;;;;;2.88;83.57;95945.28;4194041;28;5742;-70
2021/12/05 20:26:59;;;;;;;;;;;;;;;2.79;83.73;95941.03;4227779;28;5720;-70
2021/12/05 20:29:01;;;;;;;;;;;;;;;2.73;83.88;95944.31;4218459;28;5648;-70
2021/12/05 20:31:03;;;;;;;;;;;;;;;2.74;83.98;95939.91;4221228;28;5664;-70
2021/12/05 20:33:08;;;;;;;;;;;;;;;2.79;83.60;95941.03;4229768;28;5616;-70
2021/12/05 20:35:12;;;;;;;;;;;;;;;2.83;83.08;95944.97;4223459;28;5696;-70
2021/12/05 20:37:13;;;;;;;;;;;;;;;2.83;83.01;95944.97;4219138;28;5718;-70
2021/12/05 20:39:15;;;;;;;;;;;;;;;2.77;83.12;95937.78;4217550;28;5620;-70
2021/12/05 20:41:18;;;;;;;;;;;;;;;2.82;83.07;95943.31;4220573;28;5608;-69
2021/12/05 20:43:21;;;;;;;;;;;;;;;2.68;83.39;95944.00;4213152;28;5734;-74
2021/12/05 20:45:26;;;;;;;;;;;;;;;2.75;83.28;95949.38;4209086;28;5891;-73
2021/12/05 20:47:30;;;;;;;;;;;;;;;2.74;83.33;95948.56;4219259;28;5931;-73
2021/12/05 20:49:35;;;;;;;;;;;;;;;2.78;83.19;95943.81;4195107;28;6124;-73
2021/12/05 20:51:39;;;;;;;;;;;;;;;2.84;83.03;95953.63;4223134;28;7321;-73
2021/12/05 20:53:43;;;;;;;;;;;;;;;2.86;82.87;95943.81;4212782;28;5713;-70
2021/12/05 20:55:45;;;;;;;;;;;;;;;2.82;83.00;95956.38;4230455;28;5785;-69
2021/12/05 20:57:48;;;;;;;;;;;;;;;2.83;83.05;95947.56;4208964;28;5747;-69
2021/12/05 20:59:49;;;;;;;;;;;;;;;2.83;83.11;95954.56;4228654;28;5703;-68
2021/12/05 21:01:51;;;;;;;;;;;;;;;2.89;82.64;95957.34;4210057;28;6552;-69
2021/12/05 21:03:56;;;;;;;;;;;;;;;2.77;83.32;95953.44;4210850;28;5721;-70
2021/12/05 21:06:02;;;;;;;;;;;;;;;2.91;82.96;95962.41;4231290;28;5729;-70
2021/12/05 21:08:07;;;;;;;;;;;;;;;2.96;82.71;95961.91;4224554;28;5645;-70
2021/12/05 21:10:09;;;;;;;;;;;;;;;3.02;82.65;95966.47;4200703;28;5738;-70
2021/12/05 21:12:11;;;;;;;;;;;;;;;3.00;82.60;95965.81;4218800;28;5210;-70
2021/12/05 21:14:13;;;;;;;;;;;;;;;2.92;82.95;95966.63;4210932;28;5717;-70
2021/12/05 21:16:16;;;;;;;;;;;;;;;2.83;83.59;95968.47;4218342;28;5789;-70
2021/12/05 21:18:20;;;;;;;;;;;;;;;2.77;83.75;95966.50;4195149;28;5767;-70
2021/12/05 21:20:30;;;;;;;;;;;;;;;2.76;83.78;95964.06;4229980;28;5633;-72
2021/12/05 21:22:32;;;;;;;;;;;;;;;2.74;84.09;95971.25;4220717;28;5605;-72
2021/12/05 21:24:34;;;;;;;;;;;;;;;2.72;83.93;95978.41;4217623;28;5648;-73
2021/12/05 21:26:36;;;;;;;;;;;;;;;2.74;83.89;95971.25;4199707;28;5962;-72
2021/12/05 21:28:37;;;;;;;;;;;;;;;2.79;84.21;95976.78;4217742;28;5706;-72
2021/12/05 21:30:41;;;;;;;;;;;;;;;2.82;83.65;95977.25;4233595;28;5601;-72
2021/12/05 21:32:44;;;;;;;;;;;;;;;2.91;83.47;95981.47;4233324;28;5618;-73
2021/12/05 21:34:45;;;;;;;;;;;;;;;2.93;83.40;95981.31;4214725;28;5799;-73
2021/12/05 21:36:49;;;;;;;;;;;;;;;2.96;83.30;95983.63;4215090;28;5729;-73
2021/12/05 21:38:52;;;;;;;;;;;;;;;2.99;83.27;95988.50;4233821;28;5601;-73
2021/12/05 21:40:59;;;;;;;;;;;;;;;3.04;83.30;95985.38;4201724;28;5738;-73
2021/12/05 21:43:01;;;;;;;;;;;;;;;2.88;83.69;95989.66;4208540;28;5858;-74
2021/12/05 21:45:05;;;;;;;;;;;;;;;2.97;83.52;95987.03;4206689;28;5734;-73
2021/12/05 21:47:07;;;;;;;;;;;;;;;3.03;83.37;95983.75;4220637;28;5596;-72
2021/12/05 21:49:15;;;;;;;;;;;;;;;3.01;83.56;95990.94;4219695;28;5627;-73
2021/12/05 21:51:20;;;;;;;;;;;;;;;2.96;83.52;95991.44;4215859;28;5713;-73
2021/12/05 21:53:26;;;;;;;;;;;;;;;3.02;83.59;95993.38;4224154;28;5808;-73
2021/12/05 21:55:30;;;;;;;;;;;;;;;3.03;83.72;95988.97;4226850;28;5604;-73
2021/12/05 21:57:32;;;;;;;;;;;;;;;3.13;83.44;96000.06;4219436;28;5721;-72
2021/12/05 21:59:34;;;;;;;;;;;;;;;3.04;83.91;95995.81;4218732;28;5143;-71
2021/12/05 22:01:36;;;;;;;;;;;;;;;2.96;83.89;96008.91;4219400;28;7777;-72
2021/12/05 22:03:40;;;;;;;;;;;;;;;2.90;84.60;96007.75;4216919;28;5738;-72
2021/12/05 22:05:43;;;;;;;;;;;;;;;2.84;84.70;96008.44;4220592;28;5740;-76